sensor_id;sensor_type;location;lat;lon;timestamp;pressure;altitude;pressure_sealevel;temperature;humidity
76404;BME280;65232;48.358;2.122;2022-12-08T00:00:16;100810.25;;;4.16;84.38
76404;BME280;65232;48.358;2.122;2022-12-08T00:00:41;100811.22;;;4.15;84.46
76404;BME280;65232;48.358;2.122;2022-12-08T00:01:13;100808.66;;;4.14;84.75
76404;BME280;65232;48.358;2.122;2022-12-08T00:01:38;100805.91;;;4.15;84.82
76404;BME280;65232;48.358;2.122;2022-12-08T00:02:04;100811.09;;;4.17;84.98
76404;BME280;65232;48.358;2.122;2022-12-08T00:02:30;100812.03;;;4.16;85.28
76404;BME280;65232;48.358;2.122;2022-12-08T00:02:56;100813.56;;;4.20;85.22
76404;BME280;65232;48.358;2.122;2022-12-08T00:03:21;100815.44;;;4.18;85.12
76404;BME280;65232;48.358;2.122;2022-12-08T00:03:47;100807.59;;;4.16;84.95
76404;BME280;65232;48.358;2.122;2022-12-08T00:04:12;100818.78;;;4.21;84.98
76404;BME280;65232;48.358;2.122;2022-12-08T00:04:38;100814.34;;;4.22;84.96
76404;BME280;65232;48.358;2.122;2022-12-08T00:05:23;100805.88;;;4.31;84.31
76404;BME280;65232;48.358;2.122;2022-12-08T00:06:28;100803.22;;;4.31;84.21
76404;BME280;65232;48.358;2.122;2022-12-08T00:07:12;100805.88;;;4.31;84.36
76404;BME280;65232;48.358;2.122;2022-12-08T00:07:56;100802.19;;;4.34;84.48
76404;BME280;65232;48.358;2.122;2022-12-08T00:08:40;100803.56;;;4.41;84.35
76404;BME280;65232;48.358;2.122;2022-12-08T00:09:36;100801.00;;;4.39;84.48
76404;BME280;65232;48.358;2.122;2022-12-08T00:10:02;100802.03;;;4.37;84.28
76404;BME280;65232;48.358;2.122;2022-12-08T00:10:27;100798.59;;;4.35;84.16
76404;BME280;65232;48.358;2.122;2022-12-08T00:10:53;100803.75;;;4.38;84.18
76404;BME280;65232;48.358;2.122;2022-12-08T00:11:19;100794.34;;;4.32;84.48
76404;BME280;65232;48.358;2.122;2022-12-08T00:11:44;100792.53;;;4.33;84.51
76404;BME280;65232;48.358;2.122;2022-12-08T00:12:11;100794.09;;;4.37;84.42
76404;BME280;65232;48.358;2.122;2022-12-08T00:12:37;100796.47;;;4.41;84.21
76404;BME280;65232;48.358;2.122;2022-12-08T00:13:02;100796.66;;;4.38;84.58
76404;BME280;65232;48.358;2.122;2022-12-08T00:13:27;100796.91;;;4.34;84.53
76404;BME280;65232;48.358;2.122;2022-12-08T00:13:53;100797.59;;;4.37;84.30
76404;BME280;65232;48.358;2.122;2022-12-08T00:14:19;100795.09;;;4.34;84.57
76404;BME280;65232;48.358;2.122;2022-12-08T00:14:46;100794.34;;;4.32;84.68
76404;BME280;65232;48.358;2.122;2022-12-08T00:15:13;100790.19;;;4.28;84.73
76404;BME280;65232;48.358;2.122;2022-12-08T00:15:39;100788.47;;;4.27;84.80
76404;BME280;65232;48.358;2.122;2022-12-08T00:16:04;100788.47;;;4.27;84.65
76404;BME280;65232;48.358;2.122;2022-12-08T00:16:30;100795.47;;;4.28;84.78
76404;BME280;65232;48.358;2.122;2022-12-08T00:16:56;100788.19;;;4.32;84.61
76404;BME280;65232;48.358;2.122;2022-12-08T00:17:21;100787.84;;;4.38;84.57
76404;BME280;65232;48.358;2.122;2022-12-08T00:17:47;100789.63;;;4.37;84.37
76404;BME280;65232;48.358;2.122;2022-12-08T00:18:12;100788.78;;;4.37;84.24
76404;BME280;65232;48.358;2.122;2022-12-08T00:18:37;100787.69;;;4.41;84.44
76404;BME280;65232;48.358;2.122;2022-12-08T00:19:03;100785.19;;;4.38;84.43
76404;BME280;65232;48.358;2.122;2022-12-08T00:19:28;100786.31;;;4.34;84.38
76404;BME280;65232;48.358;2.122;2022-12-08T00:19:54;100783.00;;;4.30;84.66
76404;BME280;65232;48.358;2.122;2022-12-08T00:20:19;100780.59;;;4.25;85.00
76404;BME280;65232;48.358;2.122;2022-12-08T00:20:44;100783.81;;;4.31;84.84
76404;BME280;65232;48.358;2.122;2022-12-08T00:21:10;100782.31;;;4.27;84.89
76404;BME280;65232;48.358;2.122;2022-12-08T00:21:35;100782.03;;;4.31;84.84
76404;BME280;65232;48.358;2.122;2022-12-08T00:22:01;100774.94;;;4.32;84.98
76404;BME280;65232;48.358;2.122;2022-12-08T00:22:27;100782.72;;;4.35;84.93
76404;BME280;65232;48.358;2.122;2022-12-08T00:22:53;100782.56;;;4.38;84.62
76404;BME280;65232;48.358;2.122;2022-12-08T00:23:18;100779.81;;;4.39;84.63
76404;BME280;65232;48.358;2.122;2022-12-08T00:23:44;100776.31;;;4.39;84.39
76404;BME280;65232;48.358;2.122;2022-12-08T00:24:09;100777.66;;;4.46;84.49
76404;BME280;65232;48.358;2.122;2022-12-08T00:24:36;100775.75;;;4.48;84.20
76404;BME280;65232;48.358;2.122;2022-12-08T00:25:05;100774.06;;;4.47;84.22
76404;BME280;65232;48.358;2.122;2022-12-08T00:25:34;100765.38;;;4.45;83.95
76404;BME280;65232;48.358;2.122;2022-12-08T00:26:01;100769.69;;;4.46;84.42
76404;BME280;65232;48.358;2.122;2022-12-08T00:26:27;100770.47;;;4.48;84.15
76404;BME280;65232;48.358;2.122;2022-12-08T00:26:52;100780.13;;;4.49;84.01
76404;BME280;65232;48.358;2.122;2022-12-08T00:27:18;100762.19;;;4.54;84.01
76404;BME280;65232;48.358;2.122;2022-12-08T00:27:43;100769.00;;;4.58;83.63
76404;BME280;65232;48.358;2.122;2022-12-08T00:28:08;100762.56;;;4.62;83.60
76404;BME280;65232;48.358;2.122;2022-12-08T00:28:34;100770.50;;;4.62;83.47
76404;BME280;65232;48.358;2.122;2022-12-08T00:28:59;100767.88;;;4.62;83.23
76404;BME280;65232;48.358;2.122;2022-12-08T00:29:24;100761.72;;;4.61;83.22
76404;BME280;65232;48.358;2.122;2022-12-08T00:29:50;100762.56;;;4.62;82.87
76404;BME280;65232;48.358;2.122;2022-12-08T00:30:15;100764.09;;;4.66;83.13
76404;BME280;65232;48.358;2.122;2022-12-08T00:30:41;100762.47;;;4.64;82.96
76404;BME280;65232;48.358;2.122;2022-12-08T00:31:09;100766.84;;;4.65;82.76
76404;BME280;65232;48.358;2.122;2022-12-08T00:31:34;100770.25;;;4.67;82.79
76404;BME280;65232;48.358;2.122;2022-12-08T00:32:00;100762.31;;;4.67;82.62
76404;BME280;65232;48.358;2.122;2022-12-08T00:32:25;100762.31;;;4.67;82.71
76404;BME280;65232;48.358;2.122;2022-12-08T00:32:51;100760.69;;;4.64;82.89
76404;BME280;65232;48.358;2.122;2022-12-08T00:33:16;100760.69;;;4.64;82.96
76404;BME280;65232;48.358;2.122;2022-12-08T00:33:41;100761.53;;;4.65;82.96
76404;BME280;65232;48.358;2.122;2022-12-08T00:34:07;100757.09;;;4.65;82.88
76404;BME280;65232;48.358;2.122;2022-12-08T00:34:32;100758.72;;;4.68;82.62
76404;BME280;65232;48.358;2.122;2022-12-08T00:34:58;100758.72;;;4.68;83.07
76404;BME280;65232;48.358;2.122;2022-12-08T00:35:23;100758.03;;;4.64;82.77
76404;BME280;65232;48.358;2.122;2022-12-08T00:35:48;100751.78;;;4.65;82.63
76404;BME280;65232;48.358;2.122;2022-12-08T00:36:14;100759.16;;;4.60;83.35
76404;BME280;65232;48.358;2.122;2022-12-08T00:36:40;100749.81;;;4.69;82.98
76404;BME280;65232;48.358;2.122;2022-12-08T00:37:06;100756.81;;;4.70;82.88
76404;BME280;65232;48.358;2.122;2022-12-08T00:37:31;100753.78;;;4.76;82.54
76404;BME280;65232;48.358;2.122;2022-12-08T00:37:56;100760.38;;;4.84;82.50
76404;BME280;65232;48.358;2.122;2022-12-08T00:38:22;100757.03;;;4.81;82.37
76404;BME280;65232;48.358;2.122;2022-12-08T00:38:47;100755.59;;;4.75;82.53
76404;BME280;65232;48.358;2.122;2022-12-08T00:39:13;100754.25;;;4.68;82.80
76404;BME280;65232;48.358;2.122;2022-12-08T00:39:39;100752.38;;;4.70;82.78
76404;BME280;65232;48.358;2.122;2022-12-08T00:40:05;100754.19;;;4.70;82.80
76404;BME280;65232;48.358;2.122;2022-12-08T00:40:30;100757.00;;;4.67;82.84
76404;BME280;65232;48.358;2.122;2022-12-08T00:40:56;100755.38;;;4.64;82.99
76404;BME280;65232;48.358;2.122;2022-12-08T00:41:23;100753.66;;;4.63;83.22
76404;BME280;65232;48.358;2.122;2022-12-08T00:42:07;100756.91;;;4.68;83.05
76404;BME280;65232;48.358;2.122;2022-12-08T00:42:38;100751.88;;;4.64;83.08
76404;BME280;65232;48.358;2.122;2022-12-08T00:43:04;100752.66;;;4.66;83.33
76404;BME280;65232;48.358;2.122;2022-12-08T00:43:29;100747.59;;;4.61;83.09
76404;BME280;65232;48.358;2.122;2022-12-08T00:43:54;100753.41;;;4.68;83.38
76404;BME280;65232;48.358;2.122;2022-12-08T00:44:20;100751.44;;;4.71;82.90
76404;BME280;65232;48.358;2.122;2022-12-08T00:44:45;100754.84;;;4.73;82.79
76404;BME280;65232;48.358;2.122;2022-12-08T00:45:12;100752.94;;;4.75;82.67
76404;BME280;65232;48.358;2.122;2022-12-08T00:45:37;100757.50;;;4.73;82.70
76404;BME280;65232;48.358;2.122;2022-12-08T00:46:02;100749.81;;;4.69;82.79
76404;BME280;65232;48.358;2.122;2022-12-08T00:46:28;100755.03;;;4.70;82.91
76404;BME280;65232;48.358;2.122;2022-12-08T00:46:54;100753.50;;;4.66;82.90
76404;BME280;65232;48.358;2.122;2022-12-08T00:47:19;100752.66;;;4.66;83.10
76404;BME280;65232;48.358;2.122;2022-12-08T00:47:45;100751.69;;;4.67;83.19
76404;BME280;65232;48.358;2.122;2022-12-08T00:48:10;100748.69;;;4.73;83.03
76404;BME280;65232;48.358;2.122;2022-12-08T00:48:35;100748.63;;;4.74;83.04
76404;BME280;65232;48.358;2.122;2022-12-08T00:49:01;100746.91;;;4.73;82.82
76404;BME280;65232;48.358;2.122;2022-12-08T00:49:27;100748.03;;;4.69;82.79
76404;BME280;65232;48.358;2.122;2022-12-08T00:49:52;100747.44;;;4.64;82.70
76404;BME280;65232;48.358;2.122;2022-12-08T00:50:18;100745.63;;;4.65;82.87
76404;BME280;65232;48.358;2.122;2022-12-08T00:50:43;100746.66;;;4.62;82.89
76404;BME280;65232;48.358;2.122;2022-12-08T00:51:08;100741.56;;;4.59;83.15
76404;BME280;65232;48.358;2.122;2022-12-08T00:51:34;100741.28;;;4.64;83.04
76404;BME280;65232;48.358;2.122;2022-12-08T00:51:59;100742.31;;;4.61;82.88
76404;BME280;65232;48.358;2.122;2022-12-08T00:52:25;100740.59;;;4.60;82.98
76404;BME280;65232;48.358;2.122;2022-12-08T00:52:50;100740.72;;;4.58;83.29
76404;BME280;65232;48.358;2.122;2022-12-08T00:53:15;100745.16;;;4.58;83.21
76404;BME280;65232;48.358;2.122;2022-12-08T00:53:41;100745.91;;;4.60;83.29
76404;BME280;65232;48.358;2.122;2022-12-08T00:54:06;100741.44;;;4.60;83.52
76404;BME280;65232;48.358;2.122;2022-12-08T00:54:31;100747.59;;;4.61;83.41
76404;BME280;65232;48.358;2.122;2022-12-08T00:54:57;100745.81;;;4.61;83.09
76404;BME280;65232;48.358;2.122;2022-12-08T00:55:22;100744.97;;;4.61;83.36
76404;BME280;65232;48.358;2.122;2022-12-08T00:55:48;100741.56;;;4.59;83.21
76404;BME280;65232;48.358;2.122;2022-12-08T00:56:13;100739.47;;;4.64;83.24
76404;BME280;65232;48.358;2.122;2022-12-08T00:56:38;100742.91;;;4.66;83.30
76404;BME280;65232;48.358;2.122;2022-12-08T00:57:04;100741.88;;;4.69;83.34
76404;BME280;65232;48.358;2.122;2022-12-08T00:57:30;100739.13;;;4.70;83.17
76404;BME280;65232;48.358;2.122;2022-12-08T00:57:55;100745.19;;;4.72;83.06
76404;BME280;65232;48.358;2.122;2022-12-08T00:58:20;100741.41;;;4.76;82.64
76404;BME280;65232;48.358;2.122;2022-12-08T00:58:46;100740.44;;;4.77;82.64
76404;BME280;65232;48.358;2.122;2022-12-08T00:59:13;100745.97;;;4.74;82.80
76404;BME280;65232;48.358;2.122;2022-12-08T00:59:38;100739.81;;;4.74;83.09
76404;BME280;65232;48.358;2.122;2022-12-08T01:00:04;100739.59;;;4.77;82.86
76404;BME280;65232;48.358;2.122;2022-12-08T01:00:29;100741.50;;;4.75;82.90
76404;BME280;65232;48.358;2.122;2022-12-08T01:00:55;100742.34;;;4.75;83.03
76404;BME280;65232;48.358;2.122;2022-12-08T01:01:20;100741.69;;;4.72;83.33
76404;BME280;65232;48.358;2.122;2022-12-08T01:01:46;100733.91;;;4.69;83.00
76404;BME280;65232;48.358;2.122;2022-12-08T01:02:12;100737.25;;;4.72;82.97
76404;BME280;65232;48.358;2.122;2022-12-08T01:02:37;100736.84;;;4.78;82.90
76404;BME280;65232;48.358;2.122;2022-12-08T01:03:03;100733.84;;;4.84;82.80
76404;BME280;65232;48.358;2.122;2022-12-08T01:03:28;100739.06;;;4.86;82.78
76404;BME280;65232;48.358;2.122;2022-12-08T01:03:53;100736.69;;;4.81;82.66
76404;BME280;65232;48.358;2.122;2022-12-08T01:04:19;100737.34;;;4.85;82.45
76404;BME280;65232;48.358;2.122;2022-12-08T01:04:45;100732.41;;;4.79;82.77
76404;BME280;65232;48.358;2.122;2022-12-08T01:05:10;100732.31;;;4.80;82.77
76404;BME280;65232;48.358;2.122;2022-12-08T01:05:35;100738.38;;;4.82;82.68
76404;BME280;65232;48.358;2.122;2022-12-08T01:06:05;100739.91;;;4.72;83.03
76404;BME280;65232;48.358;2.122;2022-12-08T01:06:30;100737.41;;;4.69;83.20
76404;BME280;65232;48.358;2.122;2022-12-08T01:06:56;100739.38;;;4.66;83.46
76404;BME280;65232;48.358;2.122;2022-12-08T01:07:21;100734.09;;;4.66;83.90
76404;BME280;65232;48.358;2.122;2022-12-08T01:07:46;100734.19;;;4.64;84.04
76404;BME280;65232;48.358;2.122;2022-12-08T01:08:13;100739.38;;;4.66;83.73
76404;BME280;65232;48.358;2.122;2022-12-08T01:08:39;100733.63;;;4.59;83.90
76404;BME280;65232;48.358;2.122;2022-12-08T01:09:06;100734.56;;;4.58;83.79
76404;BME280;65232;48.358;2.122;2022-12-08T01:09:31;100726.88;;;4.53;83.89
76404;BME280;65232;48.358;2.122;2022-12-08T01:09:57;100733.88;;;4.54;84.06
76404;BME280;65232;48.358;2.122;2022-12-08T01:10:22;100734.72;;;4.55;83.85
76404;BME280;65232;48.358;2.122;2022-12-08T01:10:47;100730.47;;;4.52;84.00
76404;BME280;65232;48.358;2.122;2022-12-08T01:11:15;100733.97;;;4.53;83.96
76404;BME280;65232;48.358;2.122;2022-12-08T01:11:41;100740.28;;;4.50;84.21
76404;BME280;65232;48.358;2.122;2022-12-08T01:12:08;100732.53;;;4.47;84.41
76404;BME280;65232;48.358;2.122;2022-12-08T01:12:34;100732.44;;;4.49;84.28
76404;BME280;65232;48.358;2.122;2022-12-08T01:12:59;100737.66;;;4.50;84.49
76404;BME280;65232;48.358;2.122;2022-12-08T01:13:24;100733.88;;;4.54;84.42
76404;BME280;65232;48.358;2.122;2022-12-08T01:13:50;100738.16;;;4.57;84.06
76404;BME280;65232;48.358;2.122;2022-12-08T01:14:15;100736.34;;;4.57;83.98
76404;BME280;65232;48.358;2.122;2022-12-08T01:14:41;100734.56;;;4.58;83.91
76404;BME280;65232;48.358;2.122;2022-12-08T01:15:07;100735.69;;;4.54;84.14
76404;BME280;65232;48.358;2.122;2022-12-08T01:15:32;100736.16;;;4.60;84.06
76404;BME280;65232;48.358;2.122;2022-12-08T01:15:58;100734.94;;;4.66;84.01
76404;BME280;65232;48.358;2.122;2022-12-08T01:16:25;100730.84;;;4.60;83.89
76404;BME280;65232;48.358;2.122;2022-12-08T01:16:51;100737.00;;;4.61;84.17
76404;BME280;65232;48.358;2.122;2022-12-08T01:17:17;100732.00;;;4.56;83.95
76404;BME280;65232;48.358;2.122;2022-12-08T01:17:42;100732.25;;;4.52;83.92
76404;BME280;65232;48.358;2.122;2022-12-08T01:18:07;100733.88;;;4.54;83.89
76404;BME280;65232;48.358;2.122;2022-12-08T01:18:33;100737.38;;;4.55;84.34
76404;BME280;65232;48.358;2.122;2022-12-08T01:18:59;100735.88;;;4.65;83.96
76404;BME280;65232;48.358;2.122;2022-12-08T01:19:25;100729.91;;;4.61;83.72
76404;BME280;65232;48.358;2.122;2022-12-08T01:19:50;100728.97;;;4.63;83.91
76404;BME280;65232;48.358;2.122;2022-12-08T01:20:16;100729.72;;;4.65;83.81
76404;BME280;65232;48.358;2.122;2022-12-08T01:20:41;100727.09;;;4.65;83.64
76404;BME280;65232;48.358;2.122;2022-12-08T01:21:07;100726.31;;;4.63;83.53
76404;BME280;65232;48.358;2.122;2022-12-08T01:21:32;100719.13;;;4.65;83.33
76404;BME280;65232;48.358;2.122;2022-12-08T01:21:58;100730.75;;;4.62;83.18
76404;BME280;65232;48.358;2.122;2022-12-08T01:22:23;100730.75;;;4.62;83.08
76404;BME280;65232;48.358;2.122;2022-12-08T01:22:48;100730.75;;;4.62;83.06
76404;BME280;65232;48.358;2.122;2022-12-08T01:23:14;100726.22;;;4.64;83.25
76404;BME280;65232;48.358;2.122;2022-12-08T01:23:39;100729.06;;;4.61;83.03
76404;BME280;65232;48.358;2.122;2022-12-08T01:24:05;100728.19;;;4.60;83.38
76404;BME280;65232;48.358;2.122;2022-12-08T01:24:30;100733.50;;;4.60;83.25
76404;BME280;65232;48.358;2.122;2022-12-08T01:24:56;100728.31;;;4.59;83.28
76404;BME280;65232;48.358;2.122;2022-12-08T01:25:21;100725.53;;;4.60;83.34
76404;BME280;65232;48.358;2.122;2022-12-08T01:25:46;100728.03;;;4.64;82.95
76404;BME280;65232;48.358;2.122;2022-12-08T01:26:14;100729.72;;;4.65;83.04
76404;BME280;65232;48.358;2.122;2022-12-08T01:26:40;100728.97;;;4.63;83.30
76404;BME280;65232;48.358;2.122;2022-12-08T01:27:05;100722.91;;;4.60;83.27
76404;BME280;65232;48.358;2.122;2022-12-08T01:27:31;100727.16;;;4.63;83.28
76404;BME280;65232;48.358;2.122;2022-12-08T01:27:56;100727.84;;;4.67;82.90
76404;BME280;65232;48.358;2.122;2022-12-08T01:28:21;100722.09;;;4.74;83.08
76404;BME280;65232;48.358;2.122;2022-12-08T01:28:47;100723.41;;;4.67;82.80
76404;BME280;65232;48.358;2.122;2022-12-08T01:29:13;100716.56;;;4.63;82.95
76404;BME280;65232;48.358;2.122;2022-12-08T01:29:38;100718.38;;;4.63;83.19
76404;BME280;65232;48.358;2.122;2022-12-08T01:30:04;100717.94;;;4.70;83.06
76404;BME280;65232;48.358;2.122;2022-12-08T01:30:30;100721.34;;;4.72;82.69
76404;BME280;65232;48.358;2.122;2022-12-08T01:30:56;100722.47;;;4.82;82.41
76404;BME280;65232;48.358;2.122;2022-12-08T01:31:21;100711.59;;;4.87;82.22
76404;BME280;65232;48.358;2.122;2022-12-08T01:31:47;100715.13;;;4.87;82.08
76404;BME280;65232;48.358;2.122;2022-12-08T01:32:12;100715.38;;;4.83;82.04
76404;BME280;65232;48.358;2.122;2022-12-08T01:32:38;100710.81;;;4.71;82.32
76404;BME280;65232;48.358;2.122;2022-12-08T01:33:03;100711.69;;;4.71;82.16
76404;BME280;65232;48.358;2.122;2022-12-08T01:33:29;100715.84;;;4.75;82.37
76404;BME280;65232;48.358;2.122;2022-12-08T01:33:55;100710.34;;;4.78;82.44
76404;BME280;65232;48.358;2.122;2022-12-08T01:34:22;100704.66;;;4.70;82.35
76404;BME280;65232;48.358;2.122;2022-12-08T01:34:47;100714.41;;;4.70;82.46
76404;BME280;65232;48.358;2.122;2022-12-08T01:35:13;100713.75;;;4.66;82.88
76404;BME280;65232;48.358;2.122;2022-12-08T01:35:38;100711.28;;;4.63;82.86
76404;BME280;65232;48.358;2.122;2022-12-08T01:36:05;100708.78;;;4.60;82.77
76404;BME280;65232;48.358;2.122;2022-12-08T01:36:31;100704.25;;;4.62;82.82
76404;BME280;65232;48.358;2.122;2022-12-08T01:36:57;100707.06;;;4.75;82.54
76404;BME280;65232;48.358;2.122;2022-12-08T01:37:22;100707.06;;;4.75;82.47
76404;BME280;65232;48.358;2.122;2022-12-08T01:37:49;100707.22;;;4.72;82.34
76404;BME280;65232;48.358;2.122;2022-12-08T01:38:14;100705.91;;;4.79;82.09
76404;BME280;65232;48.358;2.122;2022-12-08T01:38:40;100697.78;;;4.82;82.20
76404;BME280;65232;48.358;2.122;2022-12-08T01:39:08;100698.72;;;4.81;81.90
76404;BME280;65232;48.358;2.122;2022-12-08T01:39:34;100701.75;;;4.75;81.92
76404;BME280;65232;48.358;2.122;2022-12-08T01:40:00;100707.16;;;4.73;82.44
76404;BME280;65232;48.358;2.122;2022-12-08T01:40:25;100703.44;;;4.76;82.26
76404;BME280;65232;48.358;2.122;2022-12-08T01:40:50;100708.09;;;4.72;82.25
76404;BME280;65232;48.358;2.122;2022-12-08T01:41:19;100707.69;;;4.78;81.92
76404;BME280;65232;48.358;2.122;2022-12-08T01:41:45;100702.97;;;4.69;82.34
76404;BME280;65232;48.358;2.122;2022-12-08T01:42:20;100698.34;;;4.73;82.47
76404;BME280;65232;48.358;2.122;2022-12-08T01:42:46;100696.16;;;4.79;81.97
76404;BME280;65232;48.358;2.122;2022-12-08T01:43:16;100696.34;;;4.90;81.69
76404;BME280;65232;48.358;2.122;2022-12-08T01:43:45;100700.53;;;4.94;81.56
76404;BME280;65232;48.358;2.122;2022-12-08T01:45:21;100704.75;;;4.69;81.92
76404;BME280;65232;48.358;2.122;2022-12-08T01:45:48;100704.84;;;4.67;82.24
76404;BME280;65232;48.358;2.122;2022-12-08T01:46:14;100700.75;;;4.61;82.43
76404;BME280;65232;48.358;2.122;2022-12-08T01:46:44;100709.00;;;4.57;82.67
76404;BME280;65232;48.358;2.122;2022-12-08T01:47:11;100705.41;;;4.58;82.65
76404;BME280;65232;48.358;2.122;2022-12-08T01:47:41;100708.72;;;4.61;82.87
76404;BME280;65232;48.358;2.122;2022-12-08T01:48:13;100708.78;;;4.60;82.52
76404;BME280;65232;48.358;2.122;2022-12-08T01:48:42;100709.53;;;4.48;82.54
76404;BME280;65232;48.358;2.122;2022-12-08T01:49:26;100712.00;;;4.51;82.87
76404;BME280;65232;48.358;2.122;2022-12-08T01:49:54;100712.84;;;4.51;82.90
76404;BME280;65232;48.358;2.122;2022-12-08T01:50:20;100714.06;;;4.46;83.03
76404;BME280;65232;48.358;2.122;2022-12-08T01:50:47;100715.13;;;4.43;83.18
76404;BME280;65232;48.358;2.122;2022-12-08T01:51:13;100710.84;;;4.41;83.48
76404;BME280;65232;48.358;2.122;2022-12-08T01:51:47;100716.72;;;4.46;83.43
76404;BME280;65232;48.358;2.122;2022-12-08T01:52:22;100721.28;;;4.44;83.18
76404;BME280;65232;48.358;2.122;2022-12-08T01:52:52;100714.41;;;4.55;83.00
76404;BME280;65232;48.358;2.122;2022-12-08T01:53:23;100714.78;;;4.64;82.40
76404;BME280;65232;48.358;2.122;2022-12-08T01:53:50;100714.34;;;4.71;82.51
76404;BME280;65232;48.358;2.122;2022-12-08T01:54:17;100707.75;;;4.63;82.36
76404;BME280;65232;48.358;2.122;2022-12-08T01:54:55;100710.03;;;4.54;82.59
76404;BME280;65232;48.358;2.122;2022-12-08T01:55:25;100705.78;;;4.66;82.52
76404;BME280;65232;48.358;2.122;2022-12-08T01:55:58;100707.41;;;4.69;82.07
76404;BME280;65232;48.358;2.122;2022-12-08T01:56:31;100706.34;;;4.57;82.30
76404;BME280;65232;48.358;2.122;2022-12-08T01:57:09;100701.88;;;4.43;82.48
76404;BME280;65232;48.358;2.122;2022-12-08T01:57:46;100704.47;;;4.59;82.39
76404;BME280;65232;48.358;2.122;2022-12-08T01:58:22;100701.31;;;4.52;82.51
76404;BME280;65232;48.358;2.122;2022-12-08T01:58:51;100698.84;;;4.49;82.59
76404;BME280;65232;48.358;2.122;2022-12-08T01:59:18;100703.28;;;4.49;82.71
76404;BME280;65232;48.358;2.122;2022-12-08T01:59:48;100697.56;;;4.56;82.42
76404;BME280;65232;48.358;2.122;2022-12-08T02:00:16;100704.13;;;4.49;82.73
76404;BME280;65232;48.358;2.122;2022-12-08T02:00:43;100696.50;;;4.45;82.47
76404;BME280;65232;48.358;2.122;2022-12-08T02:01:09;100698.84;;;4.49;82.41
76404;BME280;65232;48.358;2.122;2022-12-08T02:01:34;100705.38;;;4.44;82.32
76404;BME280;65232;48.358;2.122;2022-12-08T02:02:00;100704.13;;;4.49;82.23
76404;BME280;65232;48.358;2.122;2022-12-08T02:02:30;100704.69;;;4.40;82.43
76404;BME280;65232;48.358;2.122;2022-12-08T02:03:01;100701.53;;;4.34;82.74
76404;BME280;65232;48.358;2.122;2022-12-08T02:03:42;100705.97;;;4.33;82.77
76404;BME280;65232;48.358;2.122;2022-12-08T02:04:09;100703.13;;;4.22;83.09
76404;BME280;65232;48.358;2.122;2022-12-08T02:04:35;100700.38;;;4.23;83.16
76404;BME280;65232;48.358;2.122;2022-12-08T02:05:01;100700.22;;;4.27;83.11
76404;BME280;65232;48.358;2.122;2022-12-08T02:05:30;100701.91;;;4.28;82.97
76404;BME280;65232;48.358;2.122;2022-12-08T02:05:57;100702.69;;;4.30;82.98
76404;BME280;65232;48.358;2.122;2022-12-08T02:06:22;100705.59;;;4.25;82.81
76404;BME280;65232;48.358;2.122;2022-12-08T02:06:49;100698.84;;;4.19;82.91
76404;BME280;65232;48.358;2.122;2022-12-08T02:07:16;100698.84;;;4.19;82.89
76404;BME280;65232;48.358;2.122;2022-12-08T02:07:42;100700.94;;;4.14;83.27
76404;BME280;65232;48.358;2.122;2022-12-08T02:08:10;100702.03;;;4.10;83.43
76404;BME280;65232;48.358;2.122;2022-12-08T02:08:39;100699.47;;;4.09;83.36
76404;BME280;65232;48.358;2.122;2022-12-08T02:09:05;100696.06;;;4.07;83.45
76404;BME280;65232;48.358;2.122;2022-12-08T02:09:31;100697.94;;;4.05;83.38
76404;BME280;65232;48.358;2.122;2022-12-08T02:09:57;100700.59;;;4.05;83.45
76404;BME280;65232;48.358;2.122;2022-12-08T02:10:27;100693.59;;;4.04;83.44
76404;BME280;65232;48.358;2.122;2022-12-08T02:10:53;100700.00;;;4.00;83.50
76404;BME280;65232;48.358;2.122;2022-12-08T02:11:18;100697.38;;;4.00;83.74
76404;BME280;65232;48.358;2.122;2022-12-08T02:11:43;100699.34;;;3.96;83.64
76404;BME280;65232;48.358;2.122;2022-12-08T02:12:09;100697.25;;;4.01;83.68
76404;BME280;65232;48.358;2.122;2022-12-08T02:12:35;100697.75;;;4.08;83.29
76404;BME280;65232;48.358;2.122;2022-12-08T02:13:02;100694.25;;;4.07;83.20
76404;BME280;65232;48.358;2.122;2022-12-08T02:13:28;100693.53;;;3.89;83.42
76404;BME280;65232;48.358;2.122;2022-12-08T02:13:54;100690.97;;;3.88;83.61
76404;BME280;65232;48.358;2.122;2022-12-08T02:14:23;100690.31;;;3.84;83.60
76404;BME280;65232;48.358;2.122;2022-12-08T02:14:49;100698.72;;;3.91;83.74
76404;BME280;65232;48.358;2.122;2022-12-08T02:15:14;100689.16;;;3.88;83.72
76404;BME280;65232;48.358;2.122;2022-12-08T02:16:44;100694.38;;;3.90;83.61
76404;BME280;65232;48.358;2.122;2022-12-08T02:17:24;100684.88;;;3.86;83.68
76404;BME280;65232;48.358;2.122;2022-12-08T02:19:14;100684.06;;;3.85;83.49
76404;BME280;65232;48.358;2.122;2022-12-08T02:20:04;100687.13;;;3.78;83.54
76404;BME280;65232;48.358;2.122;2022-12-08T02:22:27;100684.50;;;3.62;83.67
76404;BME280;65232;48.358;2.122;2022-12-08T02:23:39;100686.72;;;3.54;83.31
76404;BME280;65232;48.358;2.122;2022-12-08T02:24:17;100696.09;;;3.44;84.11
76404;BME280;65232;48.358;2.122;2022-12-08T02:25:41;100683.47;;;3.33;84.21
76404;BME280;65232;48.358;2.122;2022-12-08T02:28:49;100697.63;;;3.32;84.15
76404;BME280;65232;48.358;2.122;2022-12-08T02:30:58;100692.19;;;3.51;84.03
76404;BME280;65232;48.358;2.122;2022-12-08T02:31:35;100688.78;;;3.49;84.12
76404;BME280;65232;48.358;2.122;2022-12-08T02:34:29;100693.63;;;3.57;83.20
76404;BME280;65232;48.358;2.122;2022-12-08T02:36:34;100692.50;;;3.45;83.13
76404;BME280;65232;48.358;2.122;2022-12-08T02:37:21;100688.34;;;3.41;83.26
76404;BME280;65232;48.358;2.122;2022-12-08T02:38:00;100687.56;;;3.39;83.58
76404;BME280;65232;48.358;2.122;2022-12-08T02:38:55;100684.94;;;3.39;83.38
76404;BME280;65232;48.358;2.122;2022-12-08T02:39:36;100690.22;;;3.39;83.61
76404;BME280;65232;48.358;2.122;2022-12-08T02:40:16;100682.38;;;3.37;83.71
76404;BME280;65232;48.358;2.122;2022-12-08T02:40:58;100685.00;;;3.37;83.74
76404;BME280;65232;48.358;2.122;2022-12-08T02:42:36;100687.81;;;3.34;83.62